Welcome to Trans World Virtual Airlines!

Welcome TWVA's Newest Pilot:

TWA2313 Bryan Heald

Not a Trans World pilot yet?
Apply Now!




Sign-in with your pilot id or email, or register

Flight TWA220

  • Submitted By: Austin Hill
  • Departure Airport: Kansas City International Airport (KMCI)
  • Arrival Airport: Lambert-Saint Louis International Airport (KSTL)
  • Aircraft: B737-800 (N4112TW)
  • Flight Time: 01.13
  • Date Submitted: 06/30/2018
  • Route: MCI MCM STL
  • Status: Accepted
Flight Details
Gross Revenue:
(158 load / $ 95.00 per unit
$ 15, 010.00
Fuel Cost:
(4424 fuel used @ 0.8 / unit)
$ 3, 539.20

Additional Log Information:

View Log

FS[18:26] Aircraft Title - Boeing 737-800
FS[18:26] Aircraft Model - B738
FS[18:26] Flight Number TWA220
FS[18:26] Departure KMCI
FS[18:26] Destination KSTL
FS[18:26] Boarding
FS[18:33] Pushing Back
FS[18:37] Taxiing to Runway
FS[18:43] Taking Off
FS[18:43] Taking Off
FS[18:43] 176kts
FS[18:43] pitch angle 8 degrees
FS[18:43] 15733 (lbs) of fuel onboard
FS[18:43] Climbing
FS[18:56] TOC Reached
FS[18:56] Cruise 29000
FS[18:59] TOD Reached
FS[18:59] Descending
FS[19:11] On Approach
FS[19:26] Landing Rate -71fpm
FS[19:26] 12154 (lbs) of fuel onboard
FS[19:26] pitch angle 9 degrees
FS[19:27] Taxiing to Gate
FS[19:30] Arrived
FS[19:36] Max Sim Rate: 1x
FS[19:36] kACARS_Free Version 1.0.1.1

Comments

Commenter Comment
Austin Hill KMCI 301824Z 19807KT P6SM SCT130 SCT180 32/23 A2989 // KSTL 301901Z 19007KT CLR 33/24 A2997

Route Map